Ballina/Mayo, Ireland
Current Conditions -  °F | °C
As of 5:00 PM on Friday 31 Oct 2014 (Local Time) from EIKN Reporting Station
Broken Clouds Broken Clouds  
Wind Chill: 52°   Ceiling: 23000
Heat Index: 52°   Visibility: 6mi
Dew Point: 52°   Wind: 5mph
Humidity: 100%   Direction: 210°SSW
Pressure: 29.62"   Gusts: NA
Location:  54.12°N, 9.16°W
Report Text: EIKN 311700Z 21004KT 180V240 9999 FEW015 SCT024 BKN230 11/11 Q1003 NOSIG
Loading
Personal Weather Stations






























Interactive Weather Map
Tropical Storm Tracking
New forecast layout! Learn more

10-Day Weather Forecast

Advertisements
Track Severe Weather on mobile